sensor_id;sensor_type;location;lat;lon;timestamp;P1;durP1;ratioP1;P2;durP2;ratioP2
287;SDS011;128;48.770;9.198;2023-11-21T00:01:53;18.23;;;3.70;;
287;SDS011;128;48.770;9.198;2023-11-21T00:04:19;6.57;;;2.80;;
287;SDS011;128;48.770;9.198;2023-11-21T00:06:46;16.30;;;3.87;;
287;SDS011;128;48.770;9.198;2023-11-21T00:09:12;5.23;;;2.60;;
287;SDS011;128;48.770;9.198;2023-11-21T00:11:40;11.60;;;2.90;;
287;SDS011;128;48.770;9.198;2023-11-21T00:14:06;15.33;;;3.03;;
287;SDS011;128;48.770;9.198;2023-11-21T00:16:33;14.50;;;2.30;;
287;SDS011;128;48.770;9.198;2023-11-21T00:18:59;15.00;;;2.90;;
287;SDS011;128;48.770;9.198;2023-11-21T00:21:25;13.80;;;3.00;;
287;SDS011;128;48.770;9.198;2023-11-21T00:23:51;16.13;;;2.80;;
287;SDS011;128;48.770;9.198;2023-11-21T00:26:17;7.80;;;2.33;;
287;SDS011;128;48.770;9.198;2023-11-21T00:28:43;11.83;;;1.90;;
287;SDS011;128;48.770;9.198;2023-11-21T00:31:08;10.03;;;3.27;;
287;SDS011;128;48.770;9.198;2023-11-21T00:33:34;12.50;;;3.63;;
287;SDS011;128;48.770;9.198;2023-11-21T00:36:00;13.73;;;3.40;;
287;SDS011;128;48.770;9.198;2023-11-21T00:38:26;11.20;;;2.90;;
287;SDS011;128;48.770;9.198;2023-11-21T00:40:53;6.97;;;2.87;;
287;SDS011;128;48.770;9.198;2023-11-21T00:43:22;13.63;;;2.80;;
287;SDS011;128;48.770;9.198;2023-11-21T00:45:48;9.60;;;3.23;;
287;SDS011;128;48.770;9.198;2023-11-21T00:48:14;7.30;;;2.97;;
287;SDS011;128;48.770;9.198;2023-11-21T00:50:40;7.03;;;2.73;;
287;SDS011;128;48.770;9.198;2023-11-21T00:53:06;10.53;;;3.13;;
287;SDS011;128;48.770;9.198;2023-11-21T00:55:32;7.47;;;2.73;;
287;SDS011;128;48.770;9.198;2023-11-21T00:57:59;5.60;;;2.33;;
287;SDS011;128;48.770;9.198;2023-11-21T01:00:27;6.03;;;2.67;;
287;SDS011;128;48.770;9.198;2023-11-21T01:02:53;10.33;;;3.73;;
287;SDS011;128;48.770;9.198;2023-11-21T01:05:20;7.63;;;2.47;;
287;SDS011;128;48.770;9.198;2023-11-21T01:07:45;25.77;;;4.30;;
287;SDS011;128;48.770;9.198;2023-11-21T01:10:11;4.33;;;2.27;;
287;SDS011;128;48.770;9.198;2023-11-21T01:12:37;6.43;;;2.30;;
287;SDS011;128;48.770;9.198;2023-11-21T01:15:07;8.77;;;2.57;;
287;SDS011;128;48.770;9.198;2023-11-21T01:17:33;8.60;;;2.00;;
287;SDS011;128;48.770;9.198;2023-11-21T01:19:59;7.43;;;2.30;;
287;SDS011;128;48.770;9.198;2023-11-21T01:22:26;6.80;;;2.67;;
287;SDS011;128;48.770;9.198;2023-11-21T01:24:53;10.23;;;2.47;;
287;SDS011;128;48.770;9.198;2023-11-21T01:27:19;6.50;;;2.50;;
287;SDS011;128;48.770;9.198;2023-11-21T01:29:45;7.20;;;2.63;;
287;SDS011;128;48.770;9.198;2023-11-21T01:32:11;11.83;;;2.50;;
287;SDS011;128;48.770;9.198;2023-11-21T01:34:37;5.60;;;1.80;;
287;SDS011;128;48.770;9.198;2023-11-21T01:37:03;12.47;;;2.40;;
287;SDS011;128;48.770;9.198;2023-11-21T01:39:30;14.40;;;3.50;;
287;SDS011;128;48.770;9.198;2023-11-21T01:41:57;7.47;;;2.07;;
287;SDS011;128;48.770;9.198;2023-11-21T01:44:26;14.13;;;2.23;;
287;SDS011;128;48.770;9.198;2023-11-21T01:46:52;12.57;;;2.90;;
287;SDS011;128;48.770;9.198;2023-11-21T01:49:18;5.50;;;3.00;;
287;SDS011;128;48.770;9.198;2023-11-21T01:51:46;9.43;;;2.57;;
287;SDS011;128;48.770;9.198;2023-11-21T01:54:13;7.93;;;1.87;;
287;SDS011;128;48.770;9.198;2023-11-21T01:56:39;7.50;;;1.83;;
287;SDS011;128;48.770;9.198;2023-11-21T01:59:05;4.27;;;2.03;;
287;SDS011;128;48.770;9.198;2023-11-21T02:01:32;11.03;;;2.20;;
287;SDS011;128;48.770;9.198;2023-11-21T02:03:58;13.20;;;2.27;;
287;SDS011;128;48.770;9.198;2023-11-21T02:06:24;5.73;;;1.97;;
287;SDS011;128;48.770;9.198;2023-11-21T02:08:50;3.00;;;1.73;;
287;SDS011;128;48.770;9.198;2023-11-21T02:11:16;5.80;;;2.10;;
287;SDS011;128;48.770;9.198;2023-11-21T02:13:44;6.23;;;2.00;;
287;SDS011;128;48.770;9.198;2023-11-21T02:16:12;4.47;;;2.20;;
287;SDS011;128;48.770;9.198;2023-11-21T02:18:39;4.33;;;1.60;;
287;SDS011;128;48.770;9.198;2023-11-21T02:21:05;3.30;;;1.93;;
287;SDS011;128;48.770;9.198;2023-11-21T02:23:31;3.73;;;1.50;;
287;SDS011;128;48.770;9.198;2023-11-21T02:25:57;6.73;;;2.20;;
287;SDS011;128;48.770;9.198;2023-11-21T02:28:23;16.50;;;1.77;;
287;SDS011;128;48.770;9.198;2023-11-21T02:30:51;8.10;;;1.53;;
287;SDS011;128;48.770;9.198;2023-11-21T02:33:21;10.20;;;1.73;;
287;SDS011;128;48.770;9.198;2023-11-21T02:35:47;2.03;;;1.50;;
287;SDS011;128;48.770;9.198;2023-11-21T02:38:14;4.93;;;1.70;;
287;SDS011;128;48.770;9.198;2023-11-21T02:40:40;5.17;;;1.80;;
287;SDS011;128;48.770;9.198;2023-11-21T02:43:06;10.43;;;1.60;;
287;SDS011;128;48.770;9.198;2023-11-21T02:45:32;5.37;;;1.50;;
287;SDS011;128;48.770;9.198;2023-11-21T02:47:58;3.83;;;1.70;;
287;SDS011;128;48.770;9.198;2023-11-21T02:50:24;5.17;;;1.50;;
287;SDS011;128;48.770;9.198;2023-11-21T02:52:50;5.13;;;1.50;;
287;SDS011;128;48.770;9.198;2023-11-21T02:55:16;2.70;;;1.50;;
287;SDS011;128;48.770;9.198;2023-11-21T02:57:42;5.93;;;1.20;;
287;SDS011;128;48.770;9.198;2023-11-21T03:00:08;5.63;;;2.77;;
287;SDS011;128;48.770;9.198;2023-11-21T03:02:41;2.90;;;1.80;;
287;SDS011;128;48.770;9.198;2023-11-21T03:05:07;6.30;;;1.80;;
287;SDS011;128;48.770;9.198;2023-11-21T03:07:36;6.17;;;1.60;;
287;SDS011;128;48.770;9.198;2023-11-21T03:10:03;13.17;;;1.90;;
287;SDS011;128;48.770;9.198;2023-11-21T03:12:29;2.00;;;1.13;;
287;SDS011;128;48.770;9.198;2023-11-21T03:14:55;2.20;;;1.20;;
287;SDS011;128;48.770;9.198;2023-11-21T03:17:21;5.87;;;1.50;;
287;SDS011;128;48.770;9.198;2023-11-21T03:19:47;4.97;;;1.47;;
287;SDS011;128;48.770;9.198;2023-11-21T03:22:13;5.33;;;1.20;;
287;SDS011;128;48.770;9.198;2023-11-21T03:24:39;5.40;;;1.53;;
287;SDS011;128;48.770;9.198;2023-11-21T03:27:05;11.40;;;1.30;;
287;SDS011;128;48.770;9.198;2023-11-21T03:29:31;4.70;;;1.33;;
287;SDS011;128;48.770;9.198;2023-11-21T03:31:57;3.90;;;1.37;;
287;SDS011;128;48.770;9.198;2023-11-21T03:34:26;3.10;;;1.13;;
287;SDS011;128;48.770;9.198;2023-11-21T03:36:53;3.40;;;1.00;;
287;SDS011;128;48.770;9.198;2023-11-21T03:39:19;4.57;;;1.33;;
287;SDS011;128;48.770;9.198;2023-11-21T03:41:46;4.30;;;1.67;;
287;SDS011;128;48.770;9.198;2023-11-21T03:44:12;2.57;;;1.40;;
287;SDS011;128;48.770;9.198;2023-11-21T03:46:38;4.23;;;1.50;;
287;SDS011;128;48.770;9.198;2023-11-21T03:49:04;2.20;;;1.00;;
287;SDS011;128;48.770;9.198;2023-11-21T03:51:30;5.10;;;1.40;;
287;SDS011;128;48.770;9.198;2023-11-21T03:53:56;2.90;;;1.30;;
287;SDS011;128;48.770;9.198;2023-11-21T03:56:22;3.70;;;1.50;;
287;SDS011;128;48.770;9.198;2023-11-21T03:58:48;4.97;;;1.37;;
287;SDS011;128;48.770;9.198;2023-11-21T04:01:21;4.10;;;1.60;;
287;SDS011;128;48.770;9.198;2023-11-21T04:03:48;2.43;;;1.10;;
287;SDS011;128;48.770;9.198;2023-11-21T04:06:14;3.17;;;1.13;;
287;SDS011;128;48.770;9.198;2023-11-21T04:08:39;3.30;;;1.20;;
287;SDS011;128;48.770;9.198;2023-11-21T04:11:05;4.00;;;1.40;;
287;SDS011;128;48.770;9.198;2023-11-21T04:13:31;8.43;;;1.10;;
287;SDS011;128;48.770;9.198;2023-11-21T04:15:57;1.13;;;0.97;;
287;SDS011;128;48.770;9.198;2023-11-21T04:18:23;2.60;;;1.27;;
287;SDS011;128;48.770;9.198;2023-11-21T04:20:49;3.87;;;1.20;;
287;SDS011;128;48.770;9.198;2023-11-21T04:23:15;5.70;;;1.20;;
287;SDS011;128;48.770;9.198;2023-11-21T04:25:41;2.33;;;1.00;;
287;SDS011;128;48.770;9.198;2023-11-21T04:28:07;4.43;;;1.13;;
287;SDS011;128;48.770;9.198;2023-11-21T04:30:33;2.57;;;1.33;;
287;SDS011;128;48.770;9.198;2023-11-21T04:32:59;1.97;;;1.03;;
287;SDS011;128;48.770;9.198;2023-11-21T04:35:25;2.90;;;1.00;;
287;SDS011;128;48.770;9.198;2023-11-21T04:37:50;4.13;;;0.90;;
287;SDS011;128;48.770;9.198;2023-11-21T04:40:16;9.30;;;1.67;;
287;SDS011;128;48.770;9.198;2023-11-21T04:42:42;2.87;;;1.20;;
287;SDS011;128;48.770;9.198;2023-11-21T04:45:08;7.53;;;1.10;;
287;SDS011;128;48.770;9.198;2023-11-21T04:47:36;1.47;;;1.10;;
287;SDS011;128;48.770;9.198;2023-11-21T04:50:02;2.23;;;1.10;;
287;SDS011;128;48.770;9.198;2023-11-21T04:52:28;4.87;;;1.60;;
287;SDS011;128;48.770;9.198;2023-11-21T04:54:54;2.90;;;1.23;;
287;SDS011;128;48.770;9.198;2023-11-21T04:57:23;5.10;;;1.40;;
287;SDS011;128;48.770;9.198;2023-11-21T04:59:49;3.30;;;1.10;;
287;SDS011;128;48.770;9.198;2023-11-21T05:02:15;2.53;;;1.13;;
287;SDS011;128;48.770;9.198;2023-11-21T05:04:41;2.13;;;0.90;;
287;SDS011;128;48.770;9.198;2023-11-21T05:07:10;4.80;;;1.23;;
287;SDS011;128;48.770;9.198;2023-11-21T05:09:40;3.00;;;1.00;;
287;SDS011;128;48.770;9.198;2023-11-21T05:12:06;2.17;;;1.20;;
287;SDS011;128;48.770;9.198;2023-11-21T05:14:32;1.90;;;0.93;;
287;SDS011;128;48.770;9.198;2023-11-21T05:16:58;3.33;;;1.10;;
287;SDS011;128;48.770;9.198;2023-11-21T05:19:24;2.17;;;1.17;;
287;SDS011;128;48.770;9.198;2023-11-21T05:21:50;1.70;;;1.07;;
287;SDS011;128;48.770;9.198;2023-11-21T05:24:16;3.60;;;1.17;;
287;SDS011;128;48.770;9.198;2023-11-21T05:26:42;1.33;;;0.80;;
287;SDS011;128;48.770;9.198;2023-11-21T05:29:07;2.30;;;1.07;;
287;SDS011;128;48.770;9.198;2023-11-21T05:31:35;4.27;;;1.23;;
287;SDS011;128;48.770;9.198;2023-11-21T05:34:01;5.23;;;1.10;;
287;SDS011;128;48.770;9.198;2023-11-21T05:36:27;1.97;;;1.10;;
287;SDS011;128;48.770;9.198;2023-11-21T05:38:53;2.13;;;0.97;;
287;SDS011;128;48.770;9.198;2023-11-21T05:41:19;7.43;;;1.83;;
287;SDS011;128;48.770;9.198;2023-11-21T05:43:46;3.67;;;1.60;;
287;SDS011;128;48.770;9.198;2023-11-21T05:46:12;7.50;;;1.77;;
287;SDS011;128;48.770;9.198;2023-11-21T05:48:38;6.00;;;1.47;;
287;SDS011;128;48.770;9.198;2023-11-21T05:51:04;5.63;;;1.60;;
287;SDS011;128;48.770;9.198;2023-11-21T05:53:30;2.67;;;1.20;;
287;SDS011;128;48.770;9.198;2023-11-21T05:55:59;9.93;;;1.07;;
287;SDS011;128;48.770;9.198;2023-11-21T05:58:25;3.07;;;1.60;;
287;SDS011;128;48.770;9.198;2023-11-21T06:00:50;2.90;;;1.23;;
287;SDS011;128;48.770;9.198;2023-11-21T06:03:16;13.40;;;1.77;;
287;SDS011;128;48.770;9.198;2023-11-21T06:05:42;4.67;;;1.27;;
287;SDS011;128;48.770;9.198;2023-11-21T06:08:08;2.37;;;0.90;;
287;SDS011;128;48.770;9.198;2023-11-21T06:10:35;1.83;;;1.17;;
287;SDS011;128;48.770;9.198;2023-11-21T06:13:01;1.27;;;0.80;;
287;SDS011;128;48.770;9.198;2023-11-21T06:15:28;2.30;;;1.43;;
287;SDS011;128;48.770;9.198;2023-11-21T06:17:54;7.00;;;1.60;;
287;SDS011;128;48.770;9.198;2023-11-21T06:20:21;1.43;;;1.20;;
287;SDS011;128;48.770;9.198;2023-11-21T06:22:48;1.83;;;1.17;;
287;SDS011;128;48.770;9.198;2023-11-21T06:25:17;3.97;;;1.50;;
287;SDS011;128;48.770;9.198;2023-11-21T06:27:45;3.83;;;1.17;;
287;SDS011;128;48.770;9.198;2023-11-21T06:30:12;8.00;;;3.67;;
287;SDS011;128;48.770;9.198;2023-11-21T06:32:38;3.87;;;1.77;;
287;SDS011;128;48.770;9.198;2023-11-21T06:35:05;7.90;;;1.50;;
287;SDS011;128;48.770;9.198;2023-11-21T06:37:32;3.07;;;1.10;;
287;SDS011;128;48.770;9.198;2023-11-21T06:39:58;2.47;;;1.43;;
287;SDS011;128;48.770;9.198;2023-11-21T06:42:25;8.10;;;1.57;;
287;SDS011;128;48.770;9.198;2023-11-21T06:44:51;2.80;;;1.87;;
287;SDS011;128;48.770;9.198;2023-11-21T06:47:17;2.50;;;1.50;;
287;SDS011;128;48.770;9.198;2023-11-21T06:49:45;3.37;;;1.30;;
287;SDS011;128;48.770;9.198;2023-11-21T06:52:12;2.60;;;1.53;;
287;SDS011;128;48.770;9.198;2023-11-21T06:54:38;1.80;;;1.43;;
287;SDS011;128;48.770;9.198;2023-11-21T06:57:04;2.23;;;1.43;;
287;SDS011;128;48.770;9.198;2023-11-21T06:59:30;5.60;;;1.60;;
287;SDS011;128;48.770;9.198;2023-11-21T07:01:57;3.90;;;2.17;;
287;SDS011;128;48.770;9.198;2023-11-21T07:04:23;2.33;;;1.40;;
287;SDS011;128;48.770;9.198;2023-11-21T07:06:50;1.73;;;1.20;;
287;SDS011;128;48.770;9.198;2023-11-21T07:09:16;2.40;;;1.10;;
287;SDS011;128;48.770;9.198;2023-11-21T07:11:42;2.70;;;1.67;;
287;SDS011;128;48.770;9.198;2023-11-21T07:14:08;3.83;;;1.30;;
287;SDS011;128;48.770;9.198;2023-11-21T07:16:34;5.60;;;1.60;;
287;SDS011;128;48.770;9.198;2023-11-21T07:19:02;2.53;;;1.20;;
287;SDS011;128;48.770;9.198;2023-11-21T07:21:31;2.70;;;1.00;;
287;SDS011;128;48.770;9.198;2023-11-21T07:23:57;4.20;;;1.60;;
287;SDS011;128;48.770;9.198;2023-11-21T07:26:23;6.33;;;1.63;;
287;SDS011;128;48.770;9.198;2023-11-21T07:28:50;2.63;;;1.57;;
287;SDS011;128;48.770;9.198;2023-11-21T07:31:16;2.90;;;2.20;;
287;SDS011;128;48.770;9.198;2023-11-21T07:33:42;2.33;;;1.57;;
287;SDS011;128;48.770;9.198;2023-11-21T07:36:08;7.93;;;1.70;;
287;SDS011;128;48.770;9.198;2023-11-21T07:38:35;5.17;;;1.77;;
287;SDS011;128;48.770;9.198;2023-11-21T07:41:01;3.27;;;1.60;;
287;SDS011;128;48.770;9.198;2023-11-21T07:43:27;4.00;;;1.90;;
287;SDS011;128;48.770;9.198;2023-11-21T07:45:59;4.10;;;1.50;;
287;SDS011;128;48.770;9.198;2023-11-21T07:48:25;3.17;;;1.60;;
287;SDS011;128;48.770;9.198;2023-11-21T07:50:51;4.17;;;1.70;;
287;SDS011;128;48.770;9.198;2023-11-21T07:53:17;1.40;;;1.20;;
287;SDS011;128;48.770;9.198;2023-11-21T07:55:43;6.30;;;1.80;;
287;SDS011;128;48.770;9.198;2023-11-21T07:58:10;5.17;;;1.37;;
287;SDS011;128;48.770;9.198;2023-11-21T08:00:37;1.87;;;1.30;;
287;SDS011;128;48.770;9.198;2023-11-21T08:03:04;2.90;;;1.27;;
287;SDS011;128;48.770;9.198;2023-11-21T08:05:30;1.73;;;1.00;;
287;SDS011;128;48.770;9.198;2023-11-21T08:07:56;2.57;;;1.57;;
287;SDS011;128;48.770;9.198;2023-11-21T08:10:22;5.87;;;1.83;;
287;SDS011;128;48.770;9.198;2023-11-21T08:12:48;6.93;;;1.40;;
287;SDS011;128;48.770;9.198;2023-11-21T08:15:15;3.37;;;1.60;;
287;SDS011;128;48.770;9.198;2023-11-21T08:17:41;1.97;;;1.43;;
287;SDS011;128;48.770;9.198;2023-11-21T08:20:07;7.03;;;1.47;;
287;SDS011;128;48.770;9.198;2023-11-21T08:22:35;2.37;;;1.70;;
287;SDS011;128;48.770;9.198;2023-11-21T08:25:01;3.90;;;2.10;;
287;SDS011;128;48.770;9.198;2023-11-21T08:27:29;7.80;;;2.47;;
287;SDS011;128;48.770;9.198;2023-11-21T08:29:55;4.73;;;2.07;;
287;SDS011;128;48.770;9.198;2023-11-21T08:32:22;3.70;;;1.80;;
287;SDS011;128;48.770;9.198;2023-11-21T08:34:48;7.73;;;2.70;;
287;SDS011;128;48.770;9.198;2023-11-21T08:37:15;3.50;;;2.30;;
287;SDS011;128;48.770;9.198;2023-11-21T08:39:41;4.37;;;1.93;;
287;SDS011;128;48.770;9.198;2023-11-21T08:42:07;5.53;;;1.70;;
287;SDS011;128;48.770;9.198;2023-11-21T08:44:33;5.77;;;1.83;;
287;SDS011;128;48.770;9.198;2023-11-21T08:46:59;4.77;;;1.70;;
287;SDS011;128;48.770;9.198;2023-11-21T08:49:25;2.17;;;1.50;;
287;SDS011;128;48.770;9.198;2023-11-21T08:51:52;6.53;;;1.90;;
287;SDS011;128;48.770;9.198;2023-11-21T08:54:20;7.00;;;2.00;;
287;SDS011;128;48.770;9.198;2023-11-21T08:56:46;2.87;;;1.37;;
287;SDS011;128;48.770;9.198;2023-11-21T08:59:12;3.50;;;1.90;;
287;SDS011;128;48.770;9.198;2023-11-21T09:01:39;4.20;;;1.73;;
287;SDS011;128;48.770;9.198;2023-11-21T09:04:05;6.00;;;1.87;;
287;SDS011;128;48.770;9.198;2023-11-21T09:06:31;2.20;;;1.63;;
287;SDS011;128;48.770;9.198;2023-11-21T09:08:57;3.20;;;1.60;;
287;SDS011;128;48.770;9.198;2023-11-21T09:11:23;3.70;;;2.00;;
287;SDS011;128;48.770;9.198;2023-11-21T09:13:50;3.03;;;1.40;;
287;SDS011;128;48.770;9.198;2023-11-21T09:16:16;1.93;;;1.27;;
287;SDS011;128;48.770;9.198;2023-11-21T09:18:42;7.33;;;1.53;;
287;SDS011;128;48.770;9.198;2023-11-21T09:21:08;2.17;;;1.70;;
287;SDS011;128;48.770;9.198;2023-11-21T09:23:35;8.23;;;1.77;;
287;SDS011;128;48.770;9.198;2023-11-21T09:26:01;3.50;;;1.43;;
287;SDS011;128;48.770;9.198;2023-11-21T09:28:27;4.33;;;1.47;;
287;SDS011;128;48.770;9.198;2023-11-21T09:30:53;3.87;;;1.53;;
287;SDS011;128;48.770;9.198;2023-11-21T09:33:19;2.60;;;1.20;;
287;SDS011;128;48.770;9.198;2023-11-21T09:35:47;4.23;;;1.73;;
287;SDS011;128;48.770;9.198;2023-11-21T09:38:14;2.00;;;1.27;;
287;SDS011;128;48.770;9.198;2023-11-21T09:40:40;4.30;;;1.30;;
287;SDS011;128;48.770;9.198;2023-11-21T09:43:07;3.00;;;1.20;;
287;SDS011;128;48.770;9.198;2023-11-21T09:45:37;3.47;;;1.07;;
287;SDS011;128;48.770;9.198;2023-11-21T09:48:04;1.90;;;1.30;;
287;SDS011;128;48.770;9.198;2023-11-21T09:50:31;3.40;;;1.57;;
287;SDS011;128;48.770;9.198;2023-11-21T09:55:39;3.60;;;1.30;;
287;SDS011;128;48.770;9.198;2023-11-21T09:58:09;1.80;;;1.07;;
287;SDS011;128;48.770;9.198;2023-11-21T10:00:37;3.03;;;1.20;;
287;SDS011;128;48.770;9.198;2023-11-21T10:03:04;2.27;;;1.20;;
287;SDS011;128;48.770;9.198;2023-11-21T10:05:30;2.50;;;1.07;;
287;SDS011;128;48.770;9.198;2023-11-21T10:07:59;8.60;;;2.03;;
287;SDS011;128;48.770;9.198;2023-11-21T10:10:25;6.83;;;1.73;;
287;SDS011;128;48.770;9.198;2023-11-21T10:12:55;1.63;;;1.57;;
287;SDS011;128;48.770;9.198;2023-11-21T10:15:21;2.43;;;1.67;;
287;SDS011;128;48.770;9.198;2023-11-21T10:17:48;2.07;;;1.20;;
287;SDS011;128;48.770;9.198;2023-11-21T10:20:14;1.90;;;1.17;;
287;SDS011;128;48.770;9.198;2023-11-21T10:22:41;4.93;;;1.60;;
287;SDS011;128;48.770;9.198;2023-11-21T10:25:07;5.80;;;1.83;;
287;SDS011;128;48.770;9.198;2023-11-21T10:27:37;4.20;;;1.97;;
287;SDS011;128;48.770;9.198;2023-11-21T10:30:04;4.17;;;1.10;;
287;SDS011;128;48.770;9.198;2023-11-21T10:32:30;5.30;;;1.07;;
287;SDS011;128;48.770;9.198;2023-11-21T10:34:57;1.50;;;1.10;;
287;SDS011;128;48.770;9.198;2023-11-21T10:37:25;1.77;;;1.10;;
287;SDS011;128;48.770;9.198;2023-11-21T10:39:57;1.77;;;1.10;;
287;SDS011;128;48.770;9.198;2023-11-21T10:42:24;9.17;;;3.10;;
287;SDS011;128;48.770;9.198;2023-11-21T10:44:51;8.87;;;4.07;;
287;SDS011;128;48.770;9.198;2023-11-21T10:47:17;20.50;;;6.57;;
287;SDS011;128;48.770;9.198;2023-11-21T10:49:44;24.20;;;8.47;;
287;SDS011;128;48.770;9.198;2023-11-21T10:52:12;26.87;;;10.47;;
287;SDS011;128;48.770;9.198;2023-11-21T10:54:42;1.83;;;1.20;;
287;SDS011;128;48.770;9.198;2023-11-21T10:57:08;1.40;;;1.10;;
287;SDS011;128;48.770;9.198;2023-11-21T10:59:36;3.40;;;0.90;;
287;SDS011;128;48.770;9.198;2023-11-21T11:02:06;1.67;;;0.90;;
287;SDS011;128;48.770;9.198;2023-11-21T11:04:35;1.87;;;0.80;;
287;SDS011;128;48.770;9.198;2023-11-21T11:07:03;4.40;;;0.93;;
287;SDS011;128;48.770;9.198;2023-11-21T11:09:29;1.73;;;0.83;;
287;SDS011;128;48.770;9.198;2023-11-21T11:11:58;1.40;;;0.87;;
287;SDS011;128;48.770;9.198;2023-11-21T11:14:24;4.10;;;0.87;;
287;SDS011;128;48.770;9.198;2023-11-21T11:16:52;1.23;;;0.83;;
287;SDS011;128;48.770;9.198;2023-11-21T11:19:19;2.97;;;0.93;;
287;SDS011;128;48.770;9.198;2023-11-21T11:27:27;3.20;;;0.77;;
287;SDS011;128;48.770;9.198;2023-11-21T11:32:43;1.60;;;0.90;;
287;SDS011;128;48.770;9.198;2023-11-21T11:35:17;1.83;;;1.03;;
287;SDS011;128;48.770;9.198;2023-11-21T11:37:45;3.60;;;1.13;;
287;SDS011;128;48.770;9.198;2023-11-21T11:40:11;1.33;;;0.97;;
287;SDS011;128;48.770;9.198;2023-11-21T11:42:37;8.90;;;1.80;;
287;SDS011;128;48.770;9.198;2023-11-21T11:45:17;4.87;;;1.33;;
287;SDS011;128;48.770;9.198;2023-11-21T11:47:44;2.13;;;1.20;;
287;SDS011;128;48.770;9.198;2023-11-21T11:50:13;4.73;;;2.10;;
287;SDS011;128;48.770;9.198;2023-11-21T11:52:51;3.83;;;1.50;;
287;SDS011;128;48.770;9.198;2023-11-21T11:55:18;3.00;;;2.03;;
287;SDS011;128;48.770;9.198;2023-11-21T11:57:45;1.90;;;1.20;;
287;SDS011;128;48.770;9.198;2023-11-21T12:02:41;1.57;;;1.23;;
287;SDS011;128;48.770;9.198;2023-11-21T12:05:11;1.60;;;1.10;;
287;SDS011;128;48.770;9.198;2023-11-21T12:10:16;2.20;;;1.50;;
287;SDS011;128;48.770;9.198;2023-11-21T12:12:45;1.60;;;1.30;;
287;SDS011;128;48.770;9.198;2023-11-21T12:15:12;3.30;;;1.80;;
287;SDS011;128;48.770;9.198;2023-11-21T12:17:38;6.73;;;2.23;;
287;SDS011;128;48.770;9.198;2023-11-21T12:20:05;2.90;;;1.70;;
287;SDS011;128;48.770;9.198;2023-11-21T12:22:39;2.40;;;1.70;;
287;SDS011;128;48.770;9.198;2023-11-21T12:25:06;8.63;;;1.80;;
287;SDS011;128;48.770;9.198;2023-11-21T12:27:32;2.53;;;1.53;;
287;SDS011;128;48.770;9.198;2023-11-21T12:29:58;1.87;;;1.47;;
287;SDS011;128;48.770;9.198;2023-11-21T12:32:24;2.97;;;1.20;;
287;SDS011;128;48.770;9.198;2023-11-21T12:34:50;1.87;;;1.20;;
287;SDS011;128;48.770;9.198;2023-11-21T12:37:16;2.20;;;1.57;;
287;SDS011;128;48.770;9.198;2023-11-21T12:39:42;2.90;;;1.90;;
287;SDS011;128;48.770;9.198;2023-11-21T12:42:08;1.37;;;1.07;;
287;SDS011;128;48.770;9.198;2023-11-21T12:44:35;2.00;;;1.53;;
287;SDS011;128;48.770;9.198;2023-11-21T12:47:05;2.60;;;1.57;;
287;SDS011;128;48.770;9.198;2023-11-21T12:49:31;2.73;;;1.20;;
287;SDS011;128;48.770;9.198;2023-11-21T12:51:59;2.10;;;1.43;;
287;SDS011;128;48.770;9.198;2023-11-21T12:54:24;1.90;;;1.33;;
287;SDS011;128;48.770;9.198;2023-11-21T12:56:50;1.67;;;1.40;;
287;SDS011;128;48.770;9.198;2023-11-21T12:59:17;2.90;;;1.50;;
287;SDS011;128;48.770;9.198;2023-11-21T13:01:43;1.80;;;1.53;;
287;SDS011;128;48.770;9.198;2023-11-21T13:04:10;1.90;;;1.37;;
287;SDS011;128;48.770;9.198;2023-11-21T13:06:37;2.17;;;1.60;;
287;SDS011;128;48.770;9.198;2023-11-21T13:09:09;2.90;;;1.63;;
287;SDS011;128;48.770;9.198;2023-11-21T13:11:36;2.20;;;1.53;;
287;SDS011;128;48.770;9.198;2023-11-21T13:14:02;2.60;;;1.70;;
287;SDS011;128;48.770;9.198;2023-11-21T13:16:28;3.00;;;2.07;;
287;SDS011;128;48.770;9.198;2023-11-21T13:18:55;4.10;;;2.10;;
287;SDS011;128;48.770;9.198;2023-11-21T13:21:21;2.53;;;1.70;;
287;SDS011;128;48.770;9.198;2023-11-21T13:23:47;4.27;;;2.40;;
287;SDS011;128;48.770;9.198;2023-11-21T13:26:16;4.33;;;2.07;;
287;SDS011;128;48.770;9.198;2023-11-21T13:28:42;2.17;;;1.40;;
287;SDS011;128;48.770;9.198;2023-11-21T13:31:12;2.10;;;1.13;;
287;SDS011;128;48.770;9.198;2023-11-21T13:34:07;7.00;;;1.43;;
287;SDS011;128;48.770;9.198;2023-11-21T13:36:33;1.90;;;1.27;;
287;SDS011;128;48.770;9.198;2023-11-21T13:39:00;6.20;;;2.27;;
287;SDS011;128;48.770;9.198;2023-11-21T13:41:34;3.90;;;1.60;;
287;SDS011;128;48.770;9.198;2023-11-21T13:44:03;7.77;;;1.90;;
287;SDS011;128;48.770;9.198;2023-11-21T13:46:40;2.13;;;1.67;;
287;SDS011;128;48.770;9.198;2023-11-21T13:49:06;4.07;;;2.00;;
287;SDS011;128;48.770;9.198;2023-11-21T13:51:35;4.87;;;1.90;;
287;SDS011;128;48.770;9.198;2023-11-21T13:54:09;3.17;;;2.20;;
287;SDS011;128;48.770;9.198;2023-11-21T13:56:36;2.47;;;1.90;;
287;SDS011;128;48.770;9.198;2023-11-21T13:59:02;11.20;;;2.10;;
287;SDS011;128;48.770;9.198;2023-11-21T14:01:39;4.60;;;2.30;;
287;SDS011;128;48.770;9.198;2023-11-21T14:04:17;4.53;;;2.87;;
287;SDS011;128;48.770;9.198;2023-11-21T14:06:50;6.47;;;3.47;;
287;SDS011;128;48.770;9.198;2023-11-21T14:09:20;7.20;;;3.23;;
287;SDS011;128;48.770;9.198;2023-11-21T14:11:54;5.30;;;3.20;;
287;SDS011;128;48.770;9.198;2023-11-21T14:14:22;3.53;;;2.70;;
287;SDS011;128;48.770;9.198;2023-11-21T14:16:50;7.67;;;3.53;;
287;SDS011;128;48.770;9.198;2023-11-21T14:19:16;7.00;;;3.60;;
287;SDS011;128;48.770;9.198;2023-11-21T14:21:45;5.27;;;3.27;;
287;SDS011;128;48.770;9.198;2023-11-21T14:24:12;6.67;;;3.90;;
287;SDS011;128;48.770;9.198;2023-11-21T14:26:41;4.10;;;2.97;;
287;SDS011;128;48.770;9.198;2023-11-21T14:29:08;5.60;;;3.90;;
287;SDS011;128;48.770;9.198;2023-11-21T14:31:36;3.77;;;2.90;;
287;SDS011;128;48.770;9.198;2023-11-21T14:34:02;5.50;;;3.23;;
287;SDS011;128;48.770;9.198;2023-11-21T14:36:28;6.60;;;3.00;;
287;SDS011;128;48.770;9.198;2023-11-21T14:38:54;9.77;;;3.83;;
287;SDS011;128;48.770;9.198;2023-11-21T14:41:20;4.23;;;2.70;;
287;SDS011;128;48.770;9.198;2023-11-21T14:43:46;7.10;;;3.60;;
287;SDS011;128;48.770;9.198;2023-11-21T14:46:14;7.43;;;3.40;;
287;SDS011;128;48.770;9.198;2023-11-21T14:48:43;8.30;;;3.67;;
287;SDS011;128;48.770;9.198;2023-11-21T14:51:12;10.70;;;3.30;;
287;SDS011;128;48.770;9.198;2023-11-21T14:53:53;7.50;;;3.47;;
287;SDS011;128;48.770;9.198;2023-11-21T14:56:22;4.07;;;2.77;;
287;SDS011;128;48.770;9.198;2023-11-21T14:58:59;5.50;;;3.30;;
287;SDS011;128;48.770;9.198;2023-11-21T15:01:31;5.23;;;2.53;;
287;SDS011;128;48.770;9.198;2023-11-21T15:04:21;4.90;;;3.10;;
287;SDS011;128;48.770;9.198;2023-11-21T15:07:01;4.97;;;2.50;;
287;SDS011;128;48.770;9.198;2023-11-21T15:09:28;3.77;;;2.70;;
287;SDS011;128;48.770;9.198;2023-11-21T15:12:03;5.00;;;3.40;;
287;SDS011;128;48.770;9.198;2023-11-21T15:14:45;4.60;;;2.80;;
287;SDS011;128;48.770;9.198;2023-11-21T15:17:14;5.47;;;2.83;;
287;SDS011;128;48.770;9.198;2023-11-21T15:19:46;3.67;;;2.63;;
287;SDS011;128;48.770;9.198;2023-11-21T15:22:12;3.10;;;2.17;;
287;SDS011;128;48.770;9.198;2023-11-21T15:24:40;5.80;;;3.47;;
287;SDS011;128;48.770;9.198;2023-11-21T15:27:08;5.67;;;3.40;;
287;SDS011;128;48.770;9.198;2023-11-21T15:29:33;8.53;;;3.40;;
287;SDS011;128;48.770;9.198;2023-11-21T15:31:59;6.40;;;3.70;;
287;SDS011;128;48.770;9.198;2023-11-21T15:34:26;5.57;;;3.50;;
287;SDS011;128;48.770;9.198;2023-11-21T15:36:54;8.50;;;4.53;;
287;SDS011;128;48.770;9.198;2023-11-21T15:39:20;7.50;;;3.00;;
287;SDS011;128;48.770;9.198;2023-11-21T15:41:53;9.30;;;4.00;;
287;SDS011;128;48.770;9.198;2023-11-21T15:44:19;8.60;;;5.30;;
287;SDS011;128;48.770;9.198;2023-11-21T15:46:45;11.10;;;4.60;;
287;SDS011;128;48.770;9.198;2023-11-21T15:49:12;6.53;;;4.80;;
287;SDS011;128;48.770;9.198;2023-11-21T15:51:44;7.63;;;4.60;;
287;SDS011;128;48.770;9.198;2023-11-21T15:54:17;8.90;;;4.83;;
287;SDS011;128;48.770;9.198;2023-11-21T15:56:43;9.97;;;6.57;;
287;SDS011;128;48.770;9.198;2023-11-21T15:59:09;11.23;;;6.50;;
287;SDS011;128;48.770;9.198;2023-11-21T16:01:35;12.80;;;5.30;;